This demonstration page uses our WeatherBlox Daily Observations layout. Learn more.

38.89511, -77.03637

Hourly Observations for June 15, 2015

Temp ( °F °C ) Dew Point ( °F °C ) Humidity (%) Winds ( mph kmh ) Pressure ( in mb ) Visibility ( mi km ) Precip ( " mm )
12:52 am 00:52 Partly Cloudy 81 27 75 24 84 84 S 9 15 30 1016 9 14.484096 0 0
1:52 am 01:52 Mostly Cloudy 79 26 73 23 84 84 S 7 11 30 1016 10 16.09344 0 0
2:52 am 02:52 Mostly Cloudy 79 26 73 23 84 84 SSW 5 7 30 1016 10 16.09344 0 0
3:52 am 03:52 Cloudy 79 26 73 23 84 84 SSW 6 9 29.97 1015 10 16.09344 0 0
4:52 am 04:52 Mostly Cloudy 79 26 73 23 84 84 Calm 30 1016 10 16.09344 0 0
5:52 am 05:52 Cloudy 79 26 73 23 84 84 SSW 3 6 30 1016 10 16.09344 0 0
6:52 am 06:52 Cloudy 79 26 73 23 84 84 NW 6 9 30.03 1017 10 16.09344 0 0
7:52 am 07:52 Cloudy 81 27 73 23 79 79 NW 5 7 30 1016 10 16.09344 0 0
8:24 am 08:24 Cloudy with Light Rain 81 27 72 22 74 74 NNW 9 15 30 1016 10 16.09344 0 0
8:52 am 08:52 Cloudy 81 27 72 22 74 74 WNW 7 11 30 1016 10 16.09344 0.001 0.001
9:52 am 09:52 Cloudy 84 29 72 22 66 66 NNW 7 11 30 1016 10 16.09344 0 0
10:52 am 10:52 Cloudy 84 29 72 22 66 66 WNW 5 7 30 1016 10 16.09344 0 0
11:52 am 11:52 Cloudy 88 31 72 22 59 59 W 9 15 30 1016 10 16.09344 0 0
12:52 pm 12:52 Cloudy 88 31 72 22 59 59 WNW 12 19 30 1016 10 16.09344 0 0
1:52 pm 13:52 Cloudy 90 32 72 22 55 55 WNW 12 19 30 1016 10 16.09344 0 0
2:52 pm 14:52 Mostly Cloudy 91 33 72 22 52 52 WNW 12 19 29.97 1015 10 16.09344 0 0
3:52 pm 15:52 Mostly Cloudy 93 34 72 22 49 49 W 10 17 29.97 1015 10 16.09344 0.001 0.001
4:52 pm 16:52 Mostly Cloudy 93 34 72 22 49 49 W 6 9 29.94 1014 10 16.09344 0 0
5:52 pm 17:52 Mostly Cloudy 90 32 72 22 55 55 N 9 15 29.94 1014 10 16.09344 0 0
6:07 pm 18:07 Mostly Cloudy with Light Rain 88 31 73 23 62 62 NW 25 41 29.94 1014 9 14.484096 0.001 0.001
6:13 pm 18:13 Mostly Cloudy with Heavy Rain 82 28 73 23 74 74 NNW 18 30 29.94 1014 1.75 2.816352 0.01 0.254
6:17 pm 18:17 Mostly Cloudy with Rain 81 27 73 23 79 79 NNW 12 19 29.94 1014 4 6.437376 0.07 1.778
6:20 pm 18:20 Mostly Cloudy with Light Rain 81 27 73 23 79 79 NNW 9 15 29.94 1014 7 11.265408 0 0
6:35 pm 18:35 Mostly Cloudy 81 27 73 23 79 79 NNW 15 24 29.94 1014 10 16.09344 0.07 1.778
6:52 pm 18:52 Mostly Cloudy 82 28 73 23 74 74 N 8 13 29.94 1014 10 16.09344 0.07 1.778
7:52 pm 19:52 Mostly Cloudy 82 28 72 22 70 70 Calm 29.94 1014 10 16.09344 0 0
8:52 pm 20:52 Mostly Cloudy 82 28 72 22 70 70 SW 6 9 29.97 1015 10 16.09344 0 0
9:52 pm 21:52 Mostly Cloudy 82 28 73 23 74 74 Calm 29.97 1015 10 16.09344 0 0
10:52 pm 22:52 Mostly Cloudy 82 28 72 22 70 70 S 7 11 29.97 1015 10 16.09344 0 0
11:52 pm 23:52 Partly Cloudy 81 27 72 22 74 74 SSW 6 9 29.97 1015 10 16.09344 0 0

Powered by AerisWeather